createdAt,value
2023-05-18T00:05:20.844Z,100678.88
2023-05-18T00:10:43.120Z,100681.31
2023-05-18T00:16:05.251Z,100685.81
2023-05-18T00:21:31.089Z,100683.13
2023-05-18T00:26:52.684Z,100685.25
2023-05-18T00:32:14.645Z,100689.47
2023-05-18T00:37:36.673Z,100691.63
2023-05-18T00:42:59.151Z,100692.19
2023-05-18T00:48:21.059Z,100696.47
2023-05-18T00:53:44.314Z,100695.38
2023-05-18T00:59:06.176Z,100694.31
2023-05-18T01:04:32.609Z,100697.28
2023-05-18T01:09:55.235Z,100690.56
2023-05-18T01:15:26.988Z,100688.72
2023-05-18T01:20:58.596Z,100689.22
2023-05-18T01:26:38.203Z,100676.59
2023-05-18T01:32:00.428Z,100683.13
2023-05-18T01:37:23.873Z,100678.78
2023-05-18T01:42:57.232Z,100683.59
2023-05-18T01:48:24.793Z,100684.72
2023-05-18T01:53:55.569Z,100685.56
2023-05-18T01:59:18.595Z,100682.09
2023-05-18T02:04:41.176Z,100685.81
2023-05-18T02:10:03.198Z,100694.47
2023-05-18T02:15:26.098Z,100692.84
2023-05-18T02:20:49.722Z,100692.56
2023-05-18T02:26:19.945Z,100697.22
2023-05-18T02:31:47.915Z,100699.09
2023-05-18T02:37:11.133Z,100706.41
2023-05-18T02:42:35.635Z,100704.53
2023-05-18T02:47:57.926Z,100700.50
2023-05-18T02:53:21.634Z,100706.97
2023-05-18T02:58:44.748Z,100706.44
2023-05-18T03:04:14.648Z,100698.06
2023-05-18T03:09:42.500Z,100705.31
2023-05-18T03:15:04.561Z,100698.28
2023-05-18T03:20:27.221Z,100701.25
2023-05-18T03:25:54.200Z,100704.66
2023-05-18T03:31:19.296Z,100701.56
2023-05-18T03:36:42.914Z,100715.88
2023-05-18T03:42:05.304Z,100709.06
2023-05-18T03:47:27.635Z,100725.06
2023-05-18T03:52:49.441Z,100722.03
2023-05-18T03:58:11.437Z,100725.75
2023-05-18T04:03:35.292Z,100725.59
2023-05-18T04:08:57.160Z,100726.66
2023-05-18T04:14:25.434Z,100730.72
2023-05-18T04:19:47.516Z,100727.59
2023-05-18T04:25:12.164Z,100731.66
2023-05-18T04:30:33.866Z,100726.38
2023-05-18T04:35:56.033Z,100734.53
2023-05-18T04:41:21.099Z,100723.69
2023-05-18T04:46:43.604Z,100722.50
2023-05-18T04:52:08.662Z,100705.47
2023-05-18T04:57:33.177Z,100709.06
2023-05-18T05:02:56.723Z,100710.53
2023-05-18T05:08:19.123Z,100712.00
2023-05-18T05:13:41.482Z,100710.50
2023-05-18T05:19:04.054Z,100700.66
2023-05-18T05:24:26.126Z,100700.03
2023-05-18T05:29:48.564Z,100698.09
2023-05-18T05:35:10.954Z,100697.34
2023-05-18T05:40:33.686Z,100694.88
2023-05-18T05:45:56.370Z,100693.63
2023-05-18T05:51:19.483Z,100687.50
2023-05-18T05:56:41.703Z,100684.69
2023-05-18T06:02:05.182Z,100683.47
2023-05-18T06:07:27.260Z,100685.72
2023-05-18T06:12:50.169Z,100671.41
2023-05-18T06:18:13.651Z,100679.56
2023-05-18T06:23:35.932Z,100679.34
2023-05-18T06:28:58.226Z,100671.72
2023-05-18T06:34:25.624Z,100674.44
2023-05-18T06:39:47.311Z,100671.19
2023-05-18T06:45:09.473Z,100673.50
2023-05-18T06:50:45.556Z,100675.41
2023-05-18T06:56:07.594Z,100667.97
2023-05-18T07:01:31.579Z,100674.47
2023-05-18T07:06:56.795Z,100671.31
2023-05-18T07:12:18.911Z,100667.38
2023-05-18T07:17:41.449Z,100668.63
2023-05-18T07:23:03.403Z,100664.28
2023-05-18T07:28:25.242Z,100651.13
2023-05-18T07:33:47.367Z,100652.66
2023-05-18T07:39:09.700Z,100653.19
2023-05-18T07:44:31.901Z,100636.94
2023-05-18T07:49:56.466Z,100636.50
2023-05-18T07:55:18.359Z,100635.38
2023-05-18T08:00:40.808Z,100628.53
2023-05-18T08:06:02.707Z,100629.03
2023-05-18T08:11:24.844Z,100640.13
2023-05-18T08:16:46.978Z,100641.78
2023-05-18T08:22:09.278Z,100631.78
2023-05-18T08:27:31.609Z,100630.94
2023-05-18T08:32:53.497Z,100643.94
2023-05-18T08:38:15.526Z,100635.47
2023-05-18T08:43:42.477Z,100636.75
2023-05-18T08:49:06.085Z,100628.25
2023-05-18T08:54:30.319Z,100629.22
2023-05-18T08:59:54.021Z,100622.97
2023-05-18T09:05:17.464Z,100623.91
2023-05-18T09:10:40.238Z,100622.22
2023-05-18T09:16:01.990Z,100620.88
2023-05-18T09:21:24.087Z,100609.00
2023-05-18T09:26:49.611Z,100597.56
2023-05-18T09:32:11.677Z,100599.34
2023-05-18T09:37:34.604Z,100587.44
2023-05-18T09:42:56.926Z,100579.22
2023-05-18T09:48:18.818Z,100586.13
2023-05-18T09:53:41.284Z,100582.72
2023-05-18T09:59:13.906Z,100569.38
2023-05-18T10:04:40.525Z,100566.59
2023-05-18T10:10:05.834Z,100554.31
2023-05-18T10:15:29.135Z,100547.50
2023-05-18T10:20:53.120Z,100538.00
2023-05-18T10:26:19.621Z,100518.38
2023-05-18T10:31:44.388Z,100522.38
2023-05-18T10:37:09.242Z,100519.75
2023-05-18T10:42:33.909Z,100517.13
2023-05-18T10:48:00.469Z,100510.88
2023-05-18T10:53:24.593Z,100508.00
2023-05-18T10:58:47.083Z,100492.25
2023-05-18T11:04:09.133Z,100495.56
2023-05-18T11:09:31.198Z,100495.41
2023-05-18T11:14:55.499Z,100475.34
2023-05-18T11:20:17.957Z,100483.75
2023-05-18T11:25:41.280Z,100479.28
2023-05-18T11:31:03.396Z,100477.94
2023-05-18T11:36:27.002Z,100472.22
2023-05-18T11:42:00.420Z,100475.69
2023-05-18T11:47:24.449Z,100477.72
2023-05-18T11:52:48.326Z,100468.56
2023-05-18T11:58:11.083Z,100471.16
2023-05-18T12:03:34.389Z,100467.59
2023-05-18T12:08:59.304Z,100469.94
2023-05-18T12:14:22.433Z,100471.84
2023-05-18T12:19:45.829Z,100473.56
2023-05-18T12:25:08.841Z,100464.50
2023-05-18T12:30:45.101Z,100453.25
2023-05-18T12:36:12.144Z,100452.34
2023-05-18T12:41:34.371Z,100456.69
2023-05-18T12:46:59.645Z,100463.66
2023-05-18T12:52:23.619Z,100456.69
2023-05-18T12:57:46.866Z,100449.22
2023-05-18T13:03:16.465Z,100443.75
2023-05-18T13:08:38.929Z,100444.03
2023-05-18T13:14:11.508Z,100434.00
2023-05-18T13:19:37.354Z,100423.97
2023-05-18T13:24:59.032Z,100416.69
2023-05-18T13:30:21.551Z,100420.41
2023-05-18T13:35:44.521Z,100427.53
2023-05-18T13:41:06.922Z,100414.31
2023-05-18T13:46:28.878Z,100421.06
2023-05-18T13:51:51.221Z,100422.59
2023-05-18T13:57:12.945Z,100416.72
2023-05-18T14:02:35.066Z,100414.69
2023-05-18T14:07:57.255Z,100415.88
2023-05-18T14:13:19.101Z,100403.75
2023-05-18T14:18:41.225Z,100401.75
2023-05-18T14:24:04.418Z,100400.84
2023-05-18T14:29:26.236Z,100404.03
2023-05-18T14:34:56.391Z,100399.91
2023-05-18T14:40:17.980Z,100405.00
2023-05-18T14:45:40.101Z,100395.09
2023-05-18T14:51:01.954Z,100411.06
2023-05-18T14:56:24.371Z,100404.56
2023-05-18T15:01:46.293Z,100407.50
2023-05-18T15:07:08.614Z,100399.00
2023-05-18T15:12:30.408Z,100395.81
2023-05-18T15:17:52.357Z,100393.06
2023-05-18T15:23:14.463Z,100382.25
2023-05-18T15:28:36.368Z,100380.72
2023-05-18T15:33:58.422Z,100375.00
2023-05-18T15:39:20.858Z,100388.47
2023-05-18T15:44:42.521Z,100385.22
2023-05-18T15:50:05.086Z,100383.44
2023-05-18T15:55:26.878Z,100390.75
2023-05-18T16:00:49.104Z,100390.84
2023-05-18T16:06:11.209Z,100385.41
2023-05-18T16:11:33.107Z,100375.53
2023-05-18T16:16:55.101Z,100383.22
2023-05-18T16:22:17.163Z,100376.00
2023-05-18T16:27:38.873Z,100375.72
2023-05-18T16:33:00.899Z,100373.59
2023-05-18T16:38:26.149Z,100381.56
2023-05-18T16:43:48.093Z,100381.81
2023-05-18T16:49:09.983Z,100383.31
2023-05-18T16:54:32.051Z,100385.22
2023-05-18T16:59:54.061Z,100388.88
2023-05-18T17:05:18.180Z,100383.63
2023-05-18T17:10:41.201Z,100387.84
2023-05-18T17:16:03.242Z,100382.38
2023-05-18T17:21:25.399Z,100383.72
2023-05-18T17:26:47.701Z,100377.19
2023-05-18T17:32:21.626Z,100384.88
2023-05-18T17:37:43.590Z,100382.63
2023-05-18T17:43:05.945Z,100393.44
2023-05-18T17:48:27.825Z,100394.28
2023-05-18T17:53:50.094Z,100387.75
2023-05-18T17:59:11.773Z,100392.38
2023-05-18T18:04:33.462Z,100385.34
2023-05-18T18:09:55.849Z,100386.09
2023-05-18T18:15:17.895Z,100388.44
2023-05-18T18:20:40.338Z,100391.44
2023-05-18T18:26:02.982Z,100387.03
2023-05-18T18:31:28.965Z,100391.44
2023-05-18T18:36:51.022Z,100385.66
2023-05-18T18:42:13.358Z,100380.00
2023-05-18T18:47:41.762Z,100397.38
2023-05-18T18:53:04.758Z,100425.78
2023-05-18T18:58:26.885Z,100435.69
2023-05-18T19:03:48.752Z,100436.47
2023-05-18T19:09:10.736Z,100426.75
2023-05-18T19:14:36.868Z,100444.50
2023-05-18T19:19:59.702Z,100447.25
2023-05-18T19:25:36.756Z,100439.38
2023-05-18T19:31:02.937Z,100449.19
2023-05-18T19:36:24.790Z,100444.13
2023-05-18T19:41:47.267Z,100463.19
2023-05-18T19:47:09.433Z,100461.22
2023-05-18T19:52:32.286Z,100458.28
2023-05-18T19:57:55.260Z,100461.38
2023-05-18T20:03:17.484Z,100445.94
2023-05-18T20:08:40.737Z,100448.84
2023-05-18T20:14:03.550Z,100451.41
2023-05-18T20:19:28.257Z,100449.88
2023-05-18T20:24:50.995Z,100446.72
2023-05-18T20:30:13.323Z,100446.94
2023-05-18T20:35:36.850Z,100450.06
2023-05-18T20:41:00.170Z,100463.97
2023-05-18T20:46:26.876Z,100465.19
2023-05-18T20:51:50.308Z,100467.97
2023-05-18T20:57:12.526Z,100470.38
2023-05-18T21:02:38.371Z,100467.72
2023-05-18T21:08:00.850Z,100473.31
2023-05-18T21:13:23.481Z,100478.84
2023-05-18T21:18:45.773Z,100469.13
2023-05-18T21:24:10.165Z,100475.25
2023-05-18T21:29:32.102Z,100481.25
2023-05-18T21:34:54.029Z,100488.91
2023-05-18T21:40:16.486Z,100488.63
2023-05-18T21:45:38.319Z,100491.69
2023-05-18T21:51:00.694Z,100494.97
2023-05-18T21:56:23.091Z,100496.84
2023-05-18T22:01:44.806Z,100500.13
2023-05-18T22:07:06.843Z,100498.50
2023-05-18T22:12:28.800Z,100495.56
2023-05-18T22:17:50.840Z,100492.06
2023-05-18T22:23:12.823Z,100495.50
2023-05-18T22:28:34.910Z,100500.97
2023-05-18T22:33:57.117Z,100496.59
2023-05-18T22:39:19.675Z,100505.66
2023-05-18T22:44:41.432Z,100500.25
2023-05-18T22:50:03.755Z,100506.34
2023-05-18T22:55:25.907Z,100495.19
2023-05-18T23:00:47.691Z,100488.03
2023-05-18T23:06:09.858Z,100491.84
2023-05-18T23:11:35.423Z,100493.44
2023-05-18T23:16:58.937Z,100487.59
2023-05-18T23:22:21.203Z,100498.13
2023-05-18T23:27:43.397Z,100494.63
2023-05-18T23:33:06.800Z,100478.22
2023-05-18T23:38:35.245Z,100495.47
2023-05-18T23:43:58.171Z,100491.38
2023-05-18T23:49:20.864Z,100492.47
2023-05-18T23:54:44.581Z,100497.13
